x

Freeport, Tx - 60 Nm South Of Freeport, Tx (42019) Wave Buoy

5:50am - Wed 10th Feb 2016 All times are CST. -6 hours from GMT.

  • Sig Wave height 1.6ft
  • Swell Direction
  • Peak Period 3s
  • Average Period 3s
  • Wind
    13mph, 18mph gusts
  • Sea Temp 68°f
  • Air Temp 62°f
  • Sea Pressure 1027.5mb
  • Freeport, Tx - 60 Nm South Of Freeport, Tx
  • Freeport, Tx - 60 Nm South Of Freeport, Tx

More Historic Weather Station data

Upgrade to MSW Pro to gain access to the past 30 days of data for over 8000 Wavebouys and Weather Stations around the globe.

Join Pro

Comparision Forecast

View Surf forecast
   
Wed 02/10 5:50am 1.6ft 3s 3s 13 18 mph 1027.5mb 68f 62f
4:50am 1.6ft 3s 3s 16 18 mph 1026.9mb 67f 64f
3:50am 1.6ft 3s 3s 13 16 mph 1026.2mb 67f 67f
2:50am 1.6ft 3s 3s 13 16 mph 1025.9mb 67f 67f
1:50am 1.3ft 3s 3s 13 16 mph 1025.8mb 67f 67f
12:50am 1.3ft 3s 3s 13 16 mph 1025.8mb 67f 66f
Tue 02/09 11:50pm 1.3ft 2s 3s 13 16 mph 1026.1mb 67f 66f
10:50pm 1ft 5s 3s 13 16 mph 1026.1mb 67f 65f
9:50pm 1ft 4s 4s 11 13 mph 1026.2mb 67f 65f
8:50pm 1.3ft 5s 4s 9 11 mph 1026mb 67f 64f
7:50pm 1.3ft 4s 3s 9 11 mph 1025.5mb 67f 63f
6:50pm 1.6ft 4s 4s 11 13 mph 1025.2mb 67f 64f
5:50pm 1.6ft 4s 4s 9 11 mph 1024.8mb 67f 63f
4:50pm 2.5ft 4s 4s 11 13 mph 1024.8mb 67f 62f
3:50pm 3ft 5s 4s 16 20 mph 1024.8mb 67f 61f
2:50pm 3.5ft 5s 4s 16 20 mph 1025.1mb 67f 60f
1:50pm 4ft 5s 4s 16 18 mph 1025.6mb 68f 59f
12:50pm 4ft 5s 4s 18 22 mph 1026.9mb 68f 58f
11:50am 4.5ft 6s 4s 18 20 mph 1028.4mb 68f 58f
10:50am 4.5ft 5s 5s 20 22 mph 1028.9mb 68f 57f
9:50am 4.5ft 5s 4s 22 27 mph 1028.6mb 68f 58f
8:50am 4ft 5s 4s 20 22 mph 1028.2mb 68f 58f
7:50am 4ft 5s 4s 22 27 mph 1027.7mb 68f 59f
6:50am 3.5ft 5s 4s 20 25 mph 1027.1mb 68f 60f
5:50am 3.5ft 4s 4s 20 25 mph 1026.5mb 67f 60f
4:50am 3.5ft 4s 4s 20 25 mph 1026mb 68f 61f
3:50am 3.5ft 5s 4s 18 22 mph 1025.7mb 68f 61f
2:50am 3.5ft 5s 4s 16 20 mph 1026mb 68f 61f
1:50am 3.5ft 5s 4s 20 25 mph 1026.7mb 69f 61f
12:50am 4.5ft 5s 5s 20 25 mph 1026.7mb 69f 62f
Mon 02/08 11:50pm 5ft 5s 5s 22 25 mph 1026.6mb 69f 62f
10:50pm 5.5ft 6s 5s 25 29 mph 1026.4mb 69f 63f
9:50pm 5ft 6s 5s 27 31 mph 1026.2mb 69f 64f
8:50pm 5ft 6s 5s 25 29 mph 1025.5mb 70f 64f
7:50pm 5ft 5s 5s 25 29 mph 1024.9mb 70f 64f
6:50pm 4.5ft 6s 5s 25 31 mph 1024.6mb 70f 64f
5:50pm 4.5ft 6s 5s 27 34 mph 1024.2mb 70f 64f
4:50pm 4.5ft 5s 4s 20 25 mph 1024.1mb 70f 63f
3:50pm 4ft 6s 5s 20 27 mph 1023.9mb 70f 62f
2:50pm 4.5ft 6s 5s 18 22 mph 1024.8mb 70f 61f
1:50pm 4.5ft 6s 5s 20 22 mph 1025.5mb 70f 60f
12:50pm 5.5ft 6s 5s 20 25 mph 1026.4mb 70f 59f
11:50am 5ft 6s 5s 22 27 mph 1026.9mb 70f 59f
10:50am 4.5ft 5s 4s 25 29 mph 1027mb 70f 60f
9:50am 3.5ft 4s 4s 25 29 mph 1026.3mb 69f 62f
8:50am 2.5ft 4s 4s 20 25 mph 1025.6mb 69f 62f
7:50am 2ft 3s 3s 20 22 mph 1024.9mb 69f 62f
6:50am 1.6ft 3s 3s 20 22 mph 1024mb 70f 64f
5:50am 1.3ft 6s 4s 11 16 mph 1022.7mb 70f 66f
4:50am 1.6ft 6s 4s 11 13 mph 1021.9mb 70f 66f
3:50am 1.6ft 7s 4s 9 13 mph 1021.6mb 70f 66f
2:50am 1.6ft 7s 4s 9 13 mph 1021.1mb 70f 65f
1:50am 1.6ft 3s 4s 13 16 mph 1021.2mb 70f 65f
12:50am 1.6ft 7s 4s 11 18 mph 1021.3mb 70f 65f
Sun 02/07 11:50pm 1.3ft 6s 4s 11 13 mph 1021.7mb 70f 65f
10:50pm 1.6ft 7s 4s 11 13 mph 1022mb 70f 64f
9:50pm 1.6ft 7s 4s 9 11 mph 1022.4mb 70f 64f
8:50pm 1.6ft 6s 4s 11 13 mph 1022.4mb 70f 64f
7:50pm 1.6ft 7s 4s 13 16 mph 1021.7mb 70f 64f
6:50pm 1.6ft 7s 4s 11 16 mph 1021.5mb 70f 64f
5:50pm 1.6ft 6s 4s 9 11 mph 1021.4mb 70f 63f
4:50pm 1.6ft 6s 4s 11 16 mph 1021.6mb 70f 64f
3:50pm 1.6ft 7s 4s 11 16 mph 1021.9mb 70f 63f
2:50pm 1.6ft 6s 4s 9 13 mph 1022.7mb 70f 63f
1:50pm 1.6ft 6s 4s 11 16 mph 1023.5mb 70f 62f
12:50pm 1.6ft 5s 4s 11 16 mph 1024.5mb 70f 61f
11:50am 1.6ft 5s 5s 11 16 mph 1025.4mb 69f 61f
10:50am 2ft 5s 4s 9 13 mph 1025.8mb 69f 60f
9:50am 1.6ft 5s 4s 9 13 mph 1026mb 69f 59f
8:50am 2ft 5s 4s 9 13 mph 1025.9mb 69f 59f
7:50am 2ft 5s 4s 7 11 mph 1026.1mb 69f 58f
6:50am 2.5ft 5s 4s 7 9 mph 1026.1mb 69f 58f
5:50am 2ft 4s 4s 4 9 mph 1025.9mb 69f 57f
4:50am 2.5ft 5s 4s 7 11 mph 1026mb 69f 57f
3:50am 2.5ft 5s 4s 7 9 mph 1026.8mb 69f 57f
2:50am 3ft 5s 4s 9 13 mph 1027mb 69f 57f
1:50am 3.5ft 5s 4s 9 11 mph 1027.4mb 69f 57f
12:50am 3.5ft 6s 4s 13 18 mph 1028.2mb 69f 57f
Sat 02/06 11:50pm 4.5ft 6s 5s 13 20 mph 1028.1mb 69f 57f
10:50pm 5ft 6s 5s 16 20 mph 1028mb 69f 58f
9:50pm 6ft 6s 5s 25 31 mph 1027.6mb 69f 59f
8:50pm 6ft 6s 5s 22 29 mph 1027.5mb 69f 59f
7:50pm 6.5ft 6s 5s 25 27 mph 1027.1mb 69f 60f
6:50pm 6ft 6s 5s 25 29 mph 1026.2mb 69f 61f
5:50pm 5ft 6s 5s 22 29 mph 1025.8mb 69f 61f
4:50pm 5.5ft 6s 5s 25 29 mph 1025.6mb 69f 61f
3:50pm 5.5ft 6s 5s 22 29 mph 1025.5mb 69f 60f
2:50pm 6ft 6s 5s 25 29 mph 1025.5mb 69f 58f
1:50pm 6.5ft 6s 5s 25 29 mph 1025.4mb 69f 58f